Main page
METAR-TAF:

METAR-TAF

Airports :

Spadeadam, England

RAF Spadeadam

latitude: 55-03N, longitude: 002-33W, elevation: 325 m

Current weather observation

The report was made 53 minutes ago, at 17:50 UTC
Wind 11 kt from the East
Temperature 9°C
Humidity 71%
Pressure 1025 hPa
Visibility 10 km or more

METAR: EGOM 261750Z AUTO 09011KT 9999 NCD 09/04 Q1025

Time: 19:43 (18:43 UTC)


TAF: missing

Weather observations and forecasts of more than 4000 airports (METAR and TAF reports).

The available stations are represented by yellow and red dots on the map.

Hover mouse over dot to see the name of the station.

Then click to see weather observations and forecasts.

To change the map : click on the green buttons with a black cross to zoom in, on the green button with a dash to zoom out, or on the green arrows for adjacent maps.


METAR-TAF: